Time;durP1;ratioP1;P1;durP2;ratioP2;P2;SDS_P1;SDS_P2;PMS_P1;PMS_P2;Temp;Humidity;BMP_temperature;BMP_pressure;BME280_temperature;BME280_humidity;BME280_pressure;Samples;Min_cycle;Max_cycle;Signal;HPM_P1;HPM_P2
2021/12/30 00:02:13;;;;;;;28.95;13.13;;;;;;;;;;6369413;27;20089;-67
2021/12/30 00:05:16;;;;;;;27.80;13.00;;;;;;;;;;6368970;27;20047;-67
2021/12/30 00:08:19;;;;;;;33.13;13.10;;;;;;;;;;6371119;27;20043;-67
2021/12/30 00:11:24;;;;;;;30.52;12.40;;;;;;;;;;6367978;27;20069;-67
2021/12/30 00:14:27;;;;;;;25.58;11.88;;;;;;;;;;6367060;27;20047;-67
2021/12/30 00:17:33;;;;;;;29.33;11.82;;;;;;;;;;6366586;27;20512;-66
2021/12/30 00:20:36;;;;;;;26.20;12.30;;;;;;;;;;6366712;27;20035;-67
2021/12/30 00:23:40;;;;;;;26.92;12.23;;;;;;;;;;6369032;27;20050;-66
2021/12/30 00:26:43;;;;;;;27.48;12.07;;;;;;;;;;6368871;27;20050;-66
2021/12/30 00:29:46;;;;;;;25.92;12.20;;;;;;;;;;6370910;27;20050;-67
2021/12/30 00:32:50;;;;;;;39.20;13.77;;;;;;;;;;6369032;27;20120;-67
2021/12/30 00:35:54;;;;;;;45.67;14.70;;;;;;;;;;6360190;27;20300;-67
2021/12/30 00:39:00;;;;;;;36.00;12.95;;;;;;;;;;6370094;27;20043;-67
2021/12/30 00:42:03;;;;;;;37.65;13.85;;;;;;;;;;6376025;27;20401;-67
2021/12/30 00:45:07;;;;;;;46.35;13.32;;;;;;;;;;6390042;27;20048;-67
2021/12/30 00:48:11;;;;;;;47.72;13.43;;;;;;;;;;6374121;27;20042;-67
2021/12/30 00:51:15;;;;;;;39.15;13.32;;;;;;;;;;6376167;27;20043;-67
2021/12/30 00:54:18;;;;;;;35.90;13.43;;;;;;;;;;6394312;27;20043;-67
2021/12/30 00:57:21;;;;;;;30.25;13.27;;;;;;;;;;6391326;27;20442;-66
2021/12/30 01:00:24;;;;;;;33.03;12.70;;;;;;;;;;6389453;27;20077;-67
2021/12/30 01:03:28;;;;;;;51.08;13.38;;;;;;;;;;6373789;27;20050;-65
2021/12/30 01:06:31;;;;;;;34.05;13.15;;;;;;;;;;6391712;27;20668;-67
2021/12/30 01:09:35;;;;;;;26.63;10.98;;;;;;;;;;6393116;27;20066;-67
2021/12/30 01:12:38;;;;;;;32.92;11.95;;;;;;;;;;6376814;27;20075;-67
2021/12/30 01:15:56;;;;;;;24.83;10.90;;;;;;;;;;6376686;27;20099;-67
2021/12/30 01:19:15;;;;;;;21.95;10.70;;;;;;;;;;6396901;27;20039;-67
2021/12/30 01:22:19;;;;;;;20.95;10.43;;;;;;;;;;6395947;27;20374;-67
2021/12/30 01:25:23;;;;;;;24.83;10.93;;;;;;;;;;6394586;27;20042;-67
2021/12/30 01:28:28;;;;;;;22.60;11.02;;;;;;;;;;6373219;27;20440;-66
2021/12/30 01:31:31;;;;;;;26.92;11.43;;;;;;;;;;6390954;27;20053;-67
2021/12/30 01:34:55;;;;;;;25.52;11.07;;;;;;;;;;6382974;27;20166;-66
2021/12/30 01:38:01;;;;;;;22.85;10.65;;;;;;;;;;6351305;27;20046;-66
2021/12/30 01:41:05;;;;;;;22.67;10.10;;;;;;;;;;6394230;27;20054;-66
2021/12/30 01:44:08;;;;;;;23.85;11.52;;;;;;;;;;6394090;27;20039;-66
2021/12/30 01:47:15;;;;;;;21.13;9.80;;;;;;;;;;6376111;27;20062;-66
2021/12/30 01:50:20;;;;;;;26.85;11.13;;;;;;;;;;6373200;27;20632;-66
2021/12/30 01:53:25;;;;;;;21.33;10.02;;;;;;;;;;6391910;27;20051;-66
2021/12/30 01:56:31;;;;;;;22.38;10.18;;;;;;;;;;6391547;27;20481;-66
2021/12/30 01:59:34;;;;;;;20.73;10.02;;;;;;;;;;6388752;27;20038;-67
2021/12/30 02:02:40;;;;;;;23.13;9.57;;;;;;;;;;6365375;27;20143;-67
2021/12/30 02:05:44;;;;;;;18.55;8.95;;;;;;;;;;6375586;27;20050;-67
2021/12/30 02:08:51;;;;;;;21.73;10.15;;;;;;;;;;6393671;27;20062;-66
2021/12/30 02:11:55;;;;;;;18.90;10.25;;;;;;;;;;6368367;27;20051;-66
2021/12/30 02:14:58;;;;;;;21.02;9.55;;;;;;;;;;6367464;27;20047;-66
2021/12/30 02:18:02;;;;;;;19.65;9.63;;;;;;;;;;6366842;27;20508;-67
2021/12/30 02:21:06;;;;;;;22.77;9.93;;;;;;;;;;6366994;27;20050;-67
2021/12/30 02:24:09;;;;;;;24.48;10.55;;;;;;;;;;6366602;27;20043;-66
2021/12/30 02:27:12;;;;;;;25.83;11.30;;;;;;;;;;6367981;27;20051;-67
2021/12/30 02:30:17;;;;;;;29.73;12.88;;;;;;;;;;6367317;28;20047;-67
2021/12/30 02:33:20;;;;;;;36.50;13.48;;;;;;;;;;6346567;28;20042;-67
2021/12/30 02:36:27;;;;;;;32.30;13.98;;;;;;;;;;6346684;28;20445;-67
2021/12/30 02:39:30;;;;;;;;;;;;;;;;;;6347223;28;20133;-68
2021/12/30 02:42:33;;;;;;;33.28;13.02;;;;;;;;;;6376510;27;19919;-66
2021/12/30 02:45:36;;;;;;;37.00;14.40;;;;;;;;;;6368322;27;20054;-67
2021/12/30 02:48:41;;;;;;;31.88;12.65;;;;;;;;;;6367825;28;20047;-67
2021/12/30 02:51:45;;;;;;;34.97;13.73;;;;;;;;;;6348704;28;20039;-67
2021/12/30 02:54:51;;;;;;;31.70;12.75;;;;;;;;;;6349489;28;20051;-67
2021/12/30 02:57:56;;;;;;;36.60;13.70;;;;;;;;;;6349022;28;20062;-67
2021/12/30 03:01:00;;;;;;;33.45;13.52;;;;;;;;;;6349176;28;20293;-67
2021/12/30 03:04:04;;;;;;;35.90;12.95;;;;;;;;;;6348895;28;20099;-67
2021/12/30 03:07:08;;;;;;;41.63;14.40;;;;;;;;;;6367317;28;20096;-67
2021/12/30 03:10:14;;;;;;;36.72;15.05;;;;;;;;;;6349136;28;20139;-67
2021/12/30 03:13:19;;;;;;;38.95;14.10;;;;;;;;;;6348212;28;20046;-67
2021/12/30 03:16:24;;;;;;;35.40;13.25;;;;;;;;;;6367927;28;20039;-67
2021/12/30 03:19:27;;;;;;;35.60;13.77;;;;;;;;;;6351479;27;20050;-67
2021/12/30 03:22:31;;;;;;;39.42;14.52;;;;;;;;;;6371740;27;20047;-67
2021/12/30 03:25:37;;;;;;;36.00;12.82;;;;;;;;;;6353613;27;20063;-66
2021/12/30 03:28:41;;;;;;;30.92;13.15;;;;;;;;;;6371744;27;20043;-66
2021/12/30 03:31:44;;;;;;;33.15;12.80;;;;;;;;;;6372130;27;20067;-66
2021/12/30 03:34:47;;;;;;;36.60;15.00;;;;;;;;;;6371123;27;20129;-66
2021/12/30 03:37:51;;;;;;;33.63;14.27;;;;;;;;;;6371761;27;20074;-66
2021/12/30 03:40:54;;;;;;;36.25;13.80;;;;;;;;;;6371816;27;20582;-67
2021/12/30 03:43:59;;;;;;;39.30;15.43;;;;;;;;;;6352725;27;20860;-66
2021/12/30 03:47:02;;;;;;;43.67;14.65;;;;;;;;;;6353374;27;20099;-65
2021/12/30 03:50:05;;;;;;;34.13;13.10;;;;;;;;;;6371264;27;20047;-66
2021/12/30 03:53:10;;;;;;;40.53;14.40;;;;;;;;;;6352743;27;20116;-66
2021/12/30 03:56:14;;;;;;;46.63;14.82;;;;;;;;;;6371310;27;20043;-66
2021/12/30 03:59:19;;;;;;;43.92;15.00;;;;;;;;;;6352779;27;20412;-66
2021/12/30 04:02:25;;;;;;;;;;;;;;;;;;6372158;27;20047;-66
2021/12/30 04:05:32;;;;;;;40.67;14.52;;;;;;;;;;6370554;27;20009;-65
2021/12/30 04:08:36;;;;;;;40.83;15.50;;;;;;;;;;6352713;27;20043;-66
2021/12/30 04:11:39;;;;;;;34.85;13.68;;;;;;;;;;6370787;27;20085;-65
2021/12/30 04:14:42;;;;;;;31.23;12.48;;;;;;;;;;6370080;27;20475;-65
2021/12/30 04:17:45;;;;;;;31.75;13.43;;;;;;;;;;6351858;27;20070;-67
2021/12/30 04:20:49;;;;;;;33.15;13.75;;;;;;;;;;6350884;27;20046;-65
2021/12/30 04:23:53;;;;;;;36.55;13.43;;;;;;;;;;6367858;27;20077;-66
2021/12/30 04:27:02;;;;;;;32.65;14.05;;;;;;;;;;6367473;27;20122;-65
2021/12/30 04:30:09;;;;;;;38.90;15.38;;;;;;;;;;6366728;27;20047;-66
2021/12/30 04:33:12;;;;;;;39.80;15.38;;;;;;;;;;6367829;27;20080;-66
2021/12/30 04:36:14;;;;;;;42.33;16.02;;;;;;;;;;6348932;27;20066;-66
2021/12/30 04:39:19;;;;;;;43.80;15.40;;;;;;;;;;6352289;27;20051;-66
2021/12/30 04:42:22;;;;;;;49.72;16.30;;;;;;;;;;6369945;27;20078;-66
2021/12/30 04:45:27;;;;;;;39.88;14.95;;;;;;;;;;6373093;27;20043;-66
2021/12/30 04:48:31;;;;;;;42.58;15.63;;;;;;;;;;6355935;27;20489;-66
2021/12/30 04:51:34;;;;;;;47.33;16.05;;;;;;;;;;6371926;27;20040;-65
2021/12/30 04:54:38;;;;;;;53.33;17.15;;;;;;;;;;6369870;27;20130;-66
2021/12/30 04:57:41;;;;;;;51.33;16.77;;;;;;;;;;6369171;27;20096;-66
2021/12/30 05:00:44;;;;;;;64.97;17.80;;;;;;;;;;6351481;27;20605;-66
2021/12/30 05:03:48;;;;;;;49.35;16.73;;;;;;;;;;6369640;27;20055;-66
2021/12/30 05:06:50;;;;;;;48.22;16.63;;;;;;;;;;6368941;27;20058;-66
2021/12/30 05:09:55;;;;;;;50.05;17.48;;;;;;;;;;6369724;27;20485;-66
2021/12/30 05:12:58;;;;;;;51.72;16.85;;;;;;;;;;6369198;27;20439;-66
2021/12/30 05:16:01;;;;;;;53.65;17.73;;;;;;;;;;6350575;27;20046;-66
2021/12/30 05:19:05;;;;;;;50.42;16.30;;;;;;;;;;6350747;27;20070;-66
2021/12/30 05:22:08;;;;;;;61.05;17.52;;;;;;;;;;6350901;27;20051;-66
2021/12/30 05:25:12;;;;;;;62.28;18.17;;;;;;;;;;6369127;27;20058;-66
2021/12/30 05:28:15;;;;;;;51.75;17.30;;;;;;;;;;6368718;27;20039;-66
2021/12/30 05:31:18;;;;;;;59.10;17.50;;;;;;;;;;6369178;27;20160;-66
2021/12/30 05:34:21;;;;;;;57.17;17.77;;;;;;;;;;6368782;27;20055;-66
2021/12/30 05:37:24;;;;;;;51.40;16.33;;;;;;;;;;6350035;27;20812;-66
2021/12/30 05:40:29;;;;;;;62.45;17.95;;;;;;;;;;6350495;27;20043;-67
2021/12/30 05:43:32;;;;;;;53.30;16.42;;;;;;;;;;6368056;27;20100;-67
2021/12/30 05:46:36;;;;;;;60.83;18.63;;;;;;;;;;6350202;27;20088;-66
2021/12/30 05:49:41;;;;;;;71.53;18.98;;;;;;;;;;6349878;27;20534;-67
2021/12/30 05:52:46;;;;;;;67.63;18.77;;;;;;;;;;6369427;27;20058;-66
2021/12/30 05:55:50;;;;;;;69.13;20.65;;;;;;;;;;6350058;27;20070;-67
2021/12/30 05:58:53;;;;;;;75.50;19.83;;;;;;;;;;6367686;27;20042;-66
2021/12/30 06:01:56;;;;;;;62.05;18.63;;;;;;;;;;6368596;27;20050;-67
2021/12/30 06:05:00;;;;;;;55.63;17.58;;;;;;;;;;6349779;27;20043;-66
2021/12/30 06:08:02;;;;;;;57.75;17.55;;;;;;;;;;6367801;27;20042;-66
2021/12/30 06:11:07;;;;;;;54.40;16.42;;;;;;;;;;6349772;27;20088;-67
2021/12/30 06:14:10;;;;;;;55.13;16.48;;;;;;;;;;6349668;27;20078;-67
2021/12/30 06:17:15;;;;;;;49.13;17.05;;;;;;;;;;6368023;27;20472;-67
2021/12/30 06:20:17;;;;;;;58.78;17.58;;;;;;;;;;6367593;27;20050;-66
2021/12/30 06:23:20;;;;;;;67.85;19.15;;;;;;;;;;6349656;27;20100;-67
2021/12/30 06:26:25;;;;;;;56.65;18.77;;;;;;;;;;6349659;27;20035;-66
2021/12/30 06:29:28;;;;;;;56.53;19.15;;;;;;;;;;6348776;27;20051;-66
2021/12/30 06:32:31;;;;;;;59.58;17.35;;;;;;;;;;6368032;27;20045;-66
2021/12/30 06:35:34;;;;;;;73.05;18.98;;;;;;;;;;6367819;28;20046;-66
2021/12/30 06:38:37;;;;;;;66.25;18.48;;;;;;;;;;6348952;28;20047;-67
2021/12/30 06:41:42;;;;;;;69.65;19.25;;;;;;;;;;6367429;28;20054;-67
2021/12/30 06:44:45;;;;;;;65.35;17.90;;;;;;;;;;6349341;28;20515;-67
2021/12/30 06:47:48;;;;;;;61.70;18.10;;;;;;;;;;6349363;28;20114;-67
2021/12/30 06:50:53;;;;;;;52.45;19.27;;;;;;;;;;6348446;28;20039;-67
2021/12/30 06:53:56;;;;;;;77.40;19.33;;;;;;;;;;6350576;27;20047;-67
2021/12/30 06:57:02;;;;;;;72.82;18.58;;;;;;;;;;6372748;27;20054;-67
2021/12/30 07:00:06;;;;;;;68.93;19.38;;;;;;;;;;6372160;27;20600;-67
2021/12/30 07:03:09;;;;;;;81.15;18.55;;;;;;;;;;6372679;27;20047;-67
2021/12/30 07:06:15;;;;;;;79.25;17.10;;;;;;;;;;6354009;27;20043;-66
2021/12/30 07:09:18;;;;;;;73.40;18.35;;;;;;;;;;6372208;27;20591;-68
2021/12/30 07:12:22;;;;;;;54.70;18.42;;;;;;;;;;6371886;27;20100;-67
2021/12/30 07:15:25;;;;;;;63.00;17.75;;;;;;;;;;6353879;27;20136;-66
2021/12/30 07:18:31;;;;;;;59.40;16.98;;;;;;;;;;6353744;27;20791;-66
2021/12/30 07:21:36;;;;;;;67.75;17.98;;;;;;;;;;6371430;27;20040;-66
2021/12/30 07:24:39;;;;;;;57.65;17.55;;;;;;;;;;6353786;27;20048;-67
2021/12/30 07:27:43;;;;;;;81.07;17.50;;;;;;;;;;6358740;27;20049;-66
2021/12/30 07:30:46;;;;;;;53.47;16.98;;;;;;;;;;6374124;27;20092;-67
2021/12/30 07:33:49;;;;;;;58.33;17.85;;;;;;;;;;6367451;27;20112;-67
2021/12/30 07:36:55;;;;;;;65.45;17.17;;;;;;;;;;6368312;27;20035;-67
2021/12/30 07:40:00;;;;;;;52.80;17.20;;;;;;;;;;6378792;27;20056;-67
2021/12/30 07:43:04;;;;;;;55.72;16.80;;;;;;;;;;6396453;27;20307;-67
2021/12/30 07:46:09;;;;;;;56.75;16.33;;;;;;;;;;6397522;27;20089;-67
2021/12/30 07:49:12;;;;;;;48.58;14.88;;;;;;;;;;6378583;27;20038;-68
2021/12/30 07:52:15;;;;;;;59.55;16.90;;;;;;;;;;6396529;27;20150;-67
2021/12/30 07:55:18;;;;;;;47.30;16.02;;;;;;;;;;6378407;27;20500;-67
2021/12/30 07:58:23;;;;;;;51.75;16.20;;;;;;;;;;6378092;27;20057;-68
2021/12/30 08:01:26;;;;;;;49.83;16.20;;;;;;;;;;6384083;27;20054;-67
2021/12/30 08:04:29;;;;;;;47.03;17.48;;;;;;;;;;6396134;27;20572;-68
2021/12/30 08:07:32;;;;;;;44.38;16.65;;;;;;;;;;6376028;27;20058;-67
2021/12/30 08:10:35;;;;;;;52.58;16.15;;;;;;;;;;6352937;27;20036;-67
2021/12/30 08:13:39;;;;;;;53.05;16.33;;;;;;;;;;6397294;27;20038;-68
2021/12/30 08:16:42;;;;;;;43.88;15.88;;;;;;;;;;6377919;27;20046;-67
2021/12/30 08:19:48;;;;;;;;;;;;;;;;;;6396445;27;20047;-68
2021/12/30 08:22:51;;;;;;;38.33;14.65;;;;;;;;;;6376631;27;19926;-67
2021/12/30 08:25:54;;;;;;;43.20;14.63;;;;;;;;;;6395496;27;20045;-68
2021/12/30 08:28:59;;;;;;;50.90;15.70;;;;;;;;;;6392838;27;20114;-67
2021/12/30 08:32:02;;;;;;;49.90;17.38;;;;;;;;;;6377729;27;20076;-67
2021/12/30 08:35:05;;;;;;;45.78;15.63;;;;;;;;;;6395964;27;20111;-69
2021/12/30 08:38:09;;;;;;;41.10;16.27;;;;;;;;;;6377405;27;20050;-67
2021/12/30 08:41:15;;;;;;;47.78;16.10;;;;;;;;;;6395685;27;20054;-67
2021/12/30 08:44:19;;;;;;;45.78;15.65;;;;;;;;;;6376660;27;20095;-67
2021/12/30 08:47:23;;;;;;;46.85;16.23;;;;;;;;;;6377097;27;20054;-67
2021/12/30 08:50:26;;;;;;;46.85;15.65;;;;;;;;;;6376960;27;20432;-67
2021/12/30 08:53:29;;;;;;;50.60;17.35;;;;;;;;;;6395341;27;20509;-66
2021/12/30 08:56:32;;;;;;;44.75;16.98;;;;;;;;;;6395270;27;20046;-67
2021/12/30 08:59:37;;;;;;;44.78;16.17;;;;;;;;;;6395420;27;20047;-66
2021/12/30 09:02:41;;;;;;;36.83;14.88;;;;;;;;;;6376786;27;20046;-67
2021/12/30 09:05:44;;;;;;;48.13;15.50;;;;;;;;;;6394847;27;20426;-66
2021/12/30 09:08:48;;;;;;;37.25;15.20;;;;;;;;;;6376839;27;20046;-68
2021/12/30 09:11:51;;;;;;;42.83;15.25;;;;;;;;;;6395163;27;20519;-67
2021/12/30 09:14:56;;;;;;;43.42;16.52;;;;;;;;;;6394413;27;20043;-67
2021/12/30 09:17:59;;;;;;;43.03;17.42;;;;;;;;;;6394323;27;20031;-66
2021/12/30 09:21:02;;;;;;;37.22;15.50;;;;;;;;;;6394649;27;20055;-68
2021/12/30 09:24:05;;;;;;;37.85;15.15;;;;;;;;;;6376018;27;20131;-66
2021/12/30 09:27:08;;;;;;;42.30;15.02;;;;;;;;;;6393865;27;20087;-67
2021/12/30 09:30:14;;;;;;;39.65;14.35;;;;;;;;;;6394537;27;20057;-67
2021/12/30 09:33:20;;;;;;;37.15;15.80;;;;;;;;;;6375616;27;20050;-68
2021/12/30 09:36:23;;;;;;;37.15;14.90;;;;;;;;;;6374914;27;20043;-67
2021/12/30 09:39:26;;;;;;;43.03;15.82;;;;;;;;;;6394876;27;20050;-69
2021/12/30 09:42:29;;;;;;;44.60;16.10;;;;;;;;;;6375134;27;20065;-68
2021/12/30 09:45:36;;;;;;;39.72;16.65;;;;;;;;;;6393737;27;20046;-68
2021/12/30 09:48:39;;;;;;;44.55;15.43;;;;;;;;;;6394210;27;20039;-67
2021/12/30 09:51:42;;;;;;;41.53;14.68;;;;;;;;;;6394080;27;20516;-67
2021/12/30 09:54:45;;;;;;;44.17;15.57;;;;;;;;;;6375498;27;20050;-68
2021/12/30 09:57:49;;;;;;;40.95;16.42;;;;;;;;;;6375127;27;20046;-68
2021/12/30 10:00:54;;;;;;;43.63;16.90;;;;;;;;;;6375438;27;20052;-68
2021/12/30 10:04:02;;;;;;;52.10;17.92;;;;;;;;;;6393692;27;20042;-68
2021/12/30 10:07:17;;;;;;;47.78;16.40;;;;;;;;;;6393174;27;20517;-67
2021/12/30 10:10:28;;;;;;;42.08;16.05;;;;;;;;;;6393638;27;20087;-68
2021/12/30 10:13:34;;;;;;;42.55;16.30;;;;;;;;;;6375043;27;20152;-67
2021/12/30 10:16:38;;;;;;;44.05;17.00;;;;;;;;;;6393598;27;20047;-68
2021/12/30 10:19:41;;;;;;;42.45;15.95;;;;;;;;;;6393179;27;20072;-67
2021/12/30 10:22:47;;;;;;;41.28;15.07;;;;;;;;;;6393836;27;20043;-67
2021/12/30 10:25:54;;;;;;;41.25;15.10;;;;;;;;;;6393195;27;20049;-67
2021/12/30 10:28:58;;;;;;;40.42;15.98;;;;;;;;;;6374298;27;20049;-68
2021/12/30 10:32:12;;;;;;;41.03;15.77;;;;;;;;;;6374897;27;20042;-67
2021/12/30 10:35:15;;;;;;;37.83;15.98;;;;;;;;;;6374721;27;20051;-67
2021/12/30 10:38:18;;;;;;;46.33;16.48;;;;;;;;;;6393049;27;20091;-68
2021/12/30 10:41:23;;;;;;;38.78;16.00;;;;;;;;;;6392555;27;20283;-67
2021/12/30 10:44:46;;;;;;;38.50;16.38;;;;;;;;;;6374924;27;20400;-67
2021/12/30 10:47:52;;;;;;;40.83;18.02;;;;;;;;;;6372745;27;20043;-69
2021/12/30 10:51:09;;;;;;;43.78;15.82;;;;;;;;;;6374212;27;20469;-67
2021/12/30 10:54:16;;;;;;;39.33;16.45;;;;;;;;;;6373939;27;20050;-67
2021/12/30 10:57:19;;;;;;;41.55;15.50;;;;;;;;;;6393254;27;20053;-67
2021/12/30 11:00:27;;;;;;;35.22;15.40;;;;;;;;;;6372506;27;20042;-68
2021/12/30 11:03:31;;;;;;;36.92;15.63;;;;;;;;;;6391454;27;20584;-68
2021/12/30 11:06:35;;;;;;;41.13;16.95;;;;;;;;;;6391547;27;20051;-67
2021/12/30 11:09:45;;;;;;;38.60;15.95;;;;;;;;;;6390872;27;20453;-68
2021/12/30 11:12:50;;;;;;;39.85;16.65;;;;;;;;;;6392114;27;20480;-67
2021/12/30 11:16:02;;;;;;;38.50;15.38;;;;;;;;;;6392099;27;20393;-68
2021/12/30 11:19:09;;;;;;;37.47;15.40;;;;;;;;;;6374032;27;20046;-67
2021/12/30 11:22:15;;;;;;;43.25;17.58;;;;;;;;;;6392224;27;20054;-67
2021/12/30 11:25:18;;;;;;;43.85;18.23;;;;;;;;;;6391762;27;20051;-67
2021/12/30 11:28:21;;;;;;;38.42;15.80;;;;;;;;;;6392142;27;20046;-67
2021/12/30 11:31:24;;;;;;;43.92;17.95;;;;;;;;;;6373317;27;20491;-67
2021/12/30 11:34:29;;;;;;;46.88;18.02;;;;;;;;;;6392239;27;20035;-68
2021/12/30 11:37:33;;;;;;;46.45;18.33;;;;;;;;;;6392469;27;20047;-69
2021/12/30 11:40:38;;;;;;;48.85;19.88;;;;;;;;;;6373976;27;20034;-68
2021/12/30 11:43:42;;;;;;;49.10;19.00;;;;;;;;;;6393502;27;20055;-68
2021/12/30 11:46:46;;;;;;;48.80;21.48;;;;;;;;;;6394615;27;20369;-68
2021/12/30 11:49:58;;;;;;;65.05;24.17;;;;;;;;;;6376459;27;20047;-68
2021/12/30 11:53:03;;;;;;;56.05;21.40;;;;;;;;;;6396169;27;20167;-67
2021/12/30 11:56:17;;;;;;;55.17;21.92;;;;;;;;;;6393530;27;20046;-67
2021/12/30 11:59:30;;;;;;;58.83;21.75;;;;;;;;;;6392061;27;20552;-67
2021/12/30 12:02:35;;;;;;;57.60;22.27;;;;;;;;;;6374448;27;20053;-68
2021/12/30 12:05:42;;;;;;;58.65;22.52;;;;;;;;;;6392002;27;20058;-67
2021/12/30 12:08:46;;;;;;;63.92;22.75;;;;;;;;;;6370740;27;20042;-68
2021/12/30 12:11:51;;;;;;;62.03;22.38;;;;;;;;;;6392821;27;20034;-67
2021/12/30 12:15:00;;;;;;;62.05;22.23;;;;;;;;;;6393726;27;20043;-68
2021/12/30 12:18:10;;;;;;;50.47;20.83;;;;;;;;;;6393436;27;20436;-67
2021/12/30 12:21:15;;;;;;;73.57;30.83;;;;;;;;;;6375830;27;20495;-69
2021/12/30 12:24:25;;;;;;;52.20;21.23;;;;;;;;;;6396676;27;20043;-67
2021/12/30 12:27:32;;;;;;;46.25;18.30;;;;;;;;;;6360662;27;20047;-68
2021/12/30 12:30:36;;;;;;;49.70;19.20;;;;;;;;;;6394200;27;20042;-68
2021/12/30 12:33:40;;;;;;;48.25;18.92;;;;;;;;;;6367756;27;20051;-67
2021/12/30 12:36:45;;;;;;;45.00;18.73;;;;;;;;;;6370039;27;20043;-68
2021/12/30 12:39:55;;;;;;;44.53;18.27;;;;;;;;;;6367797;27;20115;-68
2021/12/30 12:43:00;;;;;;;43.85;18.25;;;;;;;;;;6394877;27;20051;-68
2021/12/30 12:46:04;;;;;;;43.30;17.98;;;;;;;;;;6377462;27;20046;-67
2021/12/30 12:49:07;;;;;;;47.80;18.98;;;;;;;;;;6395186;27;20039;-67
2021/12/30 12:52:12;;;;;;;48.83;19.02;;;;;;;;;;6375172;27;20104;-67
2021/12/30 12:55:16;;;;;;;45.38;18.85;;;;;;;;;;6395408;27;20121;-67
2021/12/30 12:58:20;;;;;;;46.80;20.10;;;;;;;;;;6395572;27;20116;-67
2021/12/30 13:01:24;;;;;;;50.67;20.75;;;;;;;;;;6376436;27;20042;-67
2021/12/30 13:04:28;;;;;;;50.88;20.40;;;;;;;;;;6376012;27;20051;-67
2021/12/30 13:07:34;;;;;;;51.78;21.55;;;;;;;;;;6377087;27;20039;-66
2021/12/30 13:10:40;;;;;;;46.83;20.85;;;;;;;;;;6394683;27;20099;-67
2021/12/30 13:13:45;;;;;;;47.38;19.40;;;;;;;;;;6375955;27;20038;-67
2021/12/30 13:16:49;;;;;;;43.17;18.83;;;;;;;;;;6395033;27;20046;-67
2021/12/30 13:19:52;;;;;;;52.50;20.48;;;;;;;;;;6394632;27;20070;-66
2021/12/30 13:22:58;;;;;;;47.15;19.30;;;;;;;;;;6394521;27;20393;-67
2021/12/30 13:26:03;;;;;;;47.63;19.48;;;;;;;;;;6394620;27;20130;-67
2021/12/30 13:29:09;;;;;;;46.95;19.30;;;;;;;;;;6376306;27;20503;-67
2021/12/30 13:32:13;;;;;;;43.25;18.25;;;;;;;;;;6375394;27;20122;-67
2021/12/30 13:35:18;;;;;;;48.33;18.92;;;;;;;;;;6374952;27;20095;-67
2021/12/30 13:38:25;;;;;;;50.08;19.58;;;;;;;;;;6375881;27;20035;-67
2021/12/30 13:41:28;;;;;;;44.78;18.58;;;;;;;;;;6394248;27;20058;-67
2021/12/30 13:44:37;;;;;;;52.20;19.55;;;;;;;;;;6394076;27;20155;-67
2021/12/30 13:47:41;;;;;;;52.63;19.83;;;;;;;;;;6393547;27;20046;-67
2021/12/30 13:50:44;;;;;;;46.45;18.85;;;;;;;;;;6394417;27;20049;-67
2021/12/30 13:53:49;;;;;;;48.85;18.92;;;;;;;;;;6393975;27;20047;-67
2021/12/30 13:56:53;;;;;;;50.85;19.77;;;;;;;;;;6393123;27;20043;-66
2021/12/30 13:59:59;;;;;;;45.88;17.88;;;;;;;;;;6375307;27;20046;-66
2021/12/30 14:03:04;;;;;;;52.15;19.55;;;;;;;;;;6393284;27;20125;-67
2021/12/30 14:06:08;;;;;;;44.40;18.25;;;;;;;;;;6393535;27;20067;-67
2021/12/30 14:09:13;;;;;;;48.13;18.48;;;;;;;;;;6393146;27;20039;-66
2021/12/30 14:12:16;;;;;;;46.10;17.50;;;;;;;;;;6393856;27;20050;-67
2021/12/30 14:15:20;;;;;;;49.03;19.17;;;;;;;;;;6393550;27;20027;-67
2021/12/30 14:18:27;;;;;;;47.10;19.25;;;;;;;;;;6391759;27;20393;-67
2021/12/30 14:21:32;;;;;;;49.42;20.23;;;;;;;;;;6393800;27;20051;-68
2021/12/30 14:24:37;;;;;;;45.42;18.30;;;;;;;;;;6374667;27;20047;-68
2021/12/30 14:27:39;;;;;;;46.27;19.60;;;;;;;;;;6393609;27;20473;-68
2021/12/30 14:30:42;;;;;;;46.47;19.13;;;;;;;;;;6374437;27;20050;-68
2021/12/30 14:33:45;;;;;;;45.95;18.85;;;;;;;;;;6393319;27;20396;-68
2021/12/30 14:36:50;;;;;;;50.55;19.73;;;;;;;;;;6392989;27;20053;-68
2021/12/30 14:39:55;;;;;;;55.22;20.77;;;;;;;;;;6392468;27;20039;-68
2021/12/30 14:43:01;;;;;;;48.58;19.27;;;;;;;;;;6374601;27;20046;-67
2021/12/30 14:46:12;;;;;;;42.63;17.48;;;;;;;;;;6373953;27;20047;-67
2021/12/30 14:49:17;;;;;;;45.25;17.20;;;;;;;;;;6390675;27;20053;-68
2021/12/30 14:52:22;;;;;;;46.45;17.92;;;;;;;;;;6373374;27;20054;-68
2021/12/30 14:55:28;;;;;;;48.13;17.85;;;;;;;;;;6394331;27;20112;-66
2021/12/30 14:58:33;;;;;;;43.40;18.13;;;;;;;;;;6374333;27;20126;-68
2021/12/30 15:01:37;;;;;;;41.65;17.60;;;;;;;;;;6392444;27;20058;-68
2021/12/30 15:04:40;;;;;;;43.67;17.52;;;;;;;;;;6393379;27;20509;-68
2021/12/30 15:07:44;;;;;;;37.97;16.05;;;;;;;;;;6392746;27;20039;-67
2021/12/30 15:10:48;;;;;;;42.40;17.70;;;;;;;;;;6373029;27;20125;-67
2021/12/30 15:13:51;;;;;;;39.72;17.23;;;;;;;;;;6391416;27;20526;-67
2021/12/30 15:16:56;;;;;;;37.63;15.55;;;;;;;;;;6397406;27;20039;-67
2021/12/30 15:20:00;;;;;;;45.15;17.85;;;;;;;;;;6397564;27;20047;-67
2021/12/30 15:23:03;;;;;;;41.08;17.15;;;;;;;;;;6397844;27;20042;-67
2021/12/30 15:26:08;;;;;;;;;;;;;;;;;;6398513;27;20066;-67
2021/12/30 15:29:15;;;;;;;38.10;16.83;;;;;;;;;;6397541;27;19941;-67
2021/12/30 15:32:20;;;;;;;41.50;17.33;;;;;;;;;;6378224;27;20051;-67
2021/12/30 15:35:24;;;;;;;37.47;16.33;;;;;;;;;;6397731;27;20553;-67
2021/12/30 15:38:29;;;;;;;39.20;16.58;;;;;;;;;;6397281;27;20047;-67
2021/12/30 15:41:32;;;;;;;38.10;15.90;;;;;;;;;;6396827;27;20051;-67
2021/12/30 15:44:39;;;;;;;38.13;15.93;;;;;;;;;;6396958;27;20038;-67
2021/12/30 15:47:45;;;;;;;35.30;16.30;;;;;;;;;;6397369;27;20070;-67
2021/12/30 15:50:48;;;;;;;38.03;16.02;;;;;;;;;;6378301;27;20047;-67
2021/12/30 15:53:51;;;;;;;34.58;15.23;;;;;;;;;;6396429;27;20054;-67
2021/12/30 15:57:14;;;;;;;35.25;15.45;;;;;;;;;;6378500;27;20069;-67
2021/12/30 16:00:19;;;;;;;38.20;17.25;;;;;;;;;;6378206;27;20067;-67
2021/12/30 16:03:23;;;;;;;36.08;16.20;;;;;;;;;;6378011;27;20402;-67
2021/12/30 16:06:25;;;;;;;38.28;16.67;;;;;;;;;;6377653;27;20412;-67
2021/12/30 16:09:31;;;;;;;40.22;17.15;;;;;;;;;;6378797;27;20046;-67
2021/12/30 16:12:36;;;;;;;36.38;16.60;;;;;;;;;;6396808;27;20488;-68
2021/12/30 16:15:42;;;;;;;34.03;15.90;;;;;;;;;;6377238;27;20507;-67
2021/12/30 16:18:45;;;;;;;34.45;16.48;;;;;;;;;;6396421;27;20100;-68
2021/12/30 16:21:48;;;;;;;35.92;15.68;;;;;;;;;;6396472;27;20473;-66
2021/12/30 16:24:54;;;;;;;31.85;15.20;;;;;;;;;;6377536;27;20129;-66
2021/12/30 16:27:58;;;;;;;32.70;14.23;;;;;;;;;;6395725;27;20446;-65
2021/12/30 16:31:02;;;;;;;28.65;13.45;;;;;;;;;;6394363;27;20043;-66
2021/12/30 16:34:05;;;;;;;35.30;14.50;;;;;;;;;;6376583;27;20054;-66
2021/12/30 16:37:08;;;;;;;32.95;14.80;;;;;;;;;;6376987;27;20062;-66
2021/12/30 16:40:12;;;;;;;33.42;15.82;;;;;;;;;;6396075;27;20066;-66
2021/12/30 16:43:15;;;;;;;35.88;16.10;;;;;;;;;;6395482;27;20123;-66
2021/12/30 16:46:19;;;;;;;36.40;15.65;;;;;;;;;;6376713;27;20100;-66
2021/12/30 16:49:23;;;;;;;39.97;17.60;;;;;;;;;;6377252;27;20050;-66
2021/12/30 16:52:27;;;;;;;38.08;17.05;;;;;;;;;;6396060;27;20046;-66
2021/12/30 16:55:33;;;;;;;39.25;16.85;;;;;;;;;;6395312;27;20499;-66
2021/12/30 16:58:36;;;;;;;34.95;17.65;;;;;;;;;;6376346;27;20046;-66
2021/12/30 17:01:43;;;;;;;43.67;18.85;;;;;;;;;;6377101;27;20050;-66
2021/12/30 17:04:46;;;;;;;44.28;18.15;;;;;;;;;;6394927;27;20050;-66
2021/12/30 17:07:50;;;;;;;41.72;17.67;;;;;;;;;;6394563;27;20175;-66
2021/12/30 17:10:53;;;;;;;44.05;18.13;;;;;;;;;;6376786;27;20039;-66
2021/12/30 17:13:56;;;;;;;43.63;18.42;;;;;;;;;;6395043;27;20163;-66
2021/12/30 17:17:01;;;;;;;42.65;19.20;;;;;;;;;;6394659;27;20042;-66
2021/12/30 17:20:07;;;;;;;48.45;20.05;;;;;;;;;;6375792;27;20792;-66
2021/12/30 17:23:10;;;;;;;47.03;20.27;;;;;;;;;;6376620;27;20050;-66
2021/12/30 17:26:13;;;;;;;50.72;18.90;;;;;;;;;;6376112;27;20593;-66
2021/12/30 17:29:16;;;;;;;49.88;20.75;;;;;;;;;;6375323;27;20051;-66
2021/12/30 17:32:23;;;;;;;48.08;19.77;;;;;;;;;;6376342;27;20049;-66
2021/12/30 17:35:28;;;;;;;53.22;21.27;;;;;;;;;;6375982;27;20046;-66
2021/12/30 17:38:31;;;;;;;51.22;22.05;;;;;;;;;;6373299;27;20404;-66
2021/12/30 17:41:37;;;;;;;50.65;20.27;;;;;;;;;;6375287;27;20119;-66
2021/12/30 17:44:42;;;;;;;54.70;20.73;;;;;;;;;;6376102;27;20047;-66
2021/12/30 17:47:46;;;;;;;56.28;21.45;;;;;;;;;;6375247;27;20042;-66
2021/12/30 17:50:53;;;;;;;56.47;21.80;;;;;;;;;;6393614;27;20125;-66
2021/12/30 17:53:56;;;;;;;49.47;21.13;;;;;;;;;;6374451;27;20107;-66
2021/12/30 17:56:59;;;;;;;55.40;21.20;;;;;;;;;;6375734;27;20049;-66